ěÝzenÝ letovÚho provozu ╚eskÚ republiky
Letiste: LKTH Aktualizace: 12.07.2024 22:31:41  UTC
 METAR LKTH 12.07. 22:30 RRA
METAR LKTH 122230Z AUTO VRB02KT 9999 FEW003 SCT032 OVC120 17/16 Q1010=